Aviation Digital Data Service (ADDS)

Output produced by METARs form (0601 UTC 24 May 2017)
found at http://aviationweather.gov/adds/metars/
 
KRUT 240520Z 2406/2506 13004KT P6SM SCT150 
     FM241400 12004KT P6SM BKN110 
     FM241800 06004KT P6SM BKN060 
     FM250200 13004KT P6SM BKN120